Time;durP1;ratioP1;P1;durP2;ratioP2;P2;SDS_P1;SDS_P2;PMS_P1;PMS_P2;Temp;Humidity;BMP_temperature;BMP_pressure;BME280_temperature;BME280_humidity;BME280_pressure;Samples;Min_cycle;Max_cycle;Signal;HPM_P1;HPM_P2
2023/07/30 00:00:00;;;;;;;519.47;473.77;;;;;;;25.83;50.88;99237.28;347398;28;937;-78
2023/07/30 00:00:11;;;;;;;519.53;473.85;;;;;;;25.82;51.06;99239.09;346543;28;1406;-78
2023/07/30 00:00:21;;;;;;;519.33;473.67;;;;;;;25.83;50.88;99245.31;347337;28;1088;-78
2023/07/30 00:00:32;;;;;;;517.97;472.37;;;;;;;25.82;51.10;99235.59;346075;28;864;-78
2023/07/30 00:00:42;;;;;;;525.57;479.67;;;;;;;25.82;51.11;99238.28;343574;28;840;-78
2023/07/30 00:00:52;;;;;;;528.38;482.30;;;;;;;25.82;51.25;99243.63;344459;28;1407;-78
2023/07/30 00:01:03;;;;;;;532.00;485.90;;;;;;;25.81;51.01;99239.28;344721;28;876;-78
2023/07/30 00:01:13;;;;;;;523.13;477.10;;;;;;;25.81;51.00;99239.28;344800;28;804;-78
2023/07/30 00:01:24;;;;;;;520.70;474.90;;;;;;;25.80;51.05;99245.66;342847;28;1521;-78
2023/07/30 00:01:34;;;;;;;520.88;475.13;;;;;;;25.79;50.99;99234.09;346305;28;1239;-78
2023/07/30 00:01:44;;;;;;;533.03;487.27;;;;;;;25.80;50.78;99234.91;349031;28;1030;-78
2023/07/30 00:01:55;;;;;;;537.07;491.07;;;;;;;25.81;50.96;99236.59;344592;28;1536;-78
2023/07/30 00:02:05;;;;;;;537.10;491.00;;;;;;;25.80;50.87;99234.91;343617;28;1472;-78
2023/07/30 00:02:16;;;;;;;529.63;483.70;;;;;;;25.79;51.06;99233.25;346003;28;1378;-79
2023/07/30 00:02:27;;;;;;;529.65;483.77;;;;;;;25.78;51.06;99239.63;344434;28;1212;-79
2023/07/30 00:02:37;;;;;;;533.67;487.70;;;;;;;25.78;50.97;99240.44;343251;28;1089;-79
2023/07/30 00:02:47;;;;;;;529.33;483.43;;;;;;;25.78;51.17;99237.78;339367;29;1363;-79
2023/07/30 00:02:58;;;;;;;518.93;473.23;;;;;;;25.78;50.91;99242.28;340751;29;1204;-79
2023/07/30 00:03:08;;;;;;;517.17;471.50;;;;;;;25.77;51.13;99245.97;341824;28;1169;-79
2023/07/30 00:03:19;;;;;;;517.50;471.93;;;;;;;25.76;50.88;99238.94;343299;28;1242;-78
2023/07/30 00:03:29;;;;;;;520.95;475.30;;;;;;;25.76;51.23;99241.63;340741;29;1190;-78
2023/07/30 00:03:39;;;;;;;530.80;484.97;;;;;;;25.75;51.16;99234.59;339351;29;1313;-78
2023/07/30 00:03:50;;;;;;;532.30;486.40;;;;;;;25.71;51.15;99236.78;340527;29;973;-78
2023/07/30 00:04:00;;;;;;;538.70;492.53;;;;;;;25.70;51.11;99235.09;342035;28;873;-78
2023/07/30 00:04:11;;;;;;;530.73;484.70;;;;;;;25.71;51.19;99235.94;342684;28;1303;-78
2023/07/30 00:04:21;;;;;;;526.88;480.90;;;;;;;25.70;51.40;99239.63;339796;29;1398;-78
2023/07/30 00:04:32;;;;;;;521.90;476.10;;;;;;;25.68;51.22;99238.94;338158;29;1234;-78
2023/07/30 00:04:42;;;;;;;530.58;484.45;;;;;;;25.68;51.22;99231.75;337847;29;1409;-78
2023/07/30 00:04:53;;;;;;;542.30;495.83;;;;;;;25.68;51.41;99236.25;338493;28;1295;-78
2023/07/30 00:05:03;;;;;;;543.95;497.50;;;;;;;25.68;51.01;99241.63;337953;29;1322;-78
2023/07/30 00:05:14;;;;;;;534.30;488.27;;;;;;;25.68;51.29;99237.09;336635;29;1274;-78
2023/07/30 00:05:24;;;;;;;529.77;483.73;;;;;;;25.68;51.32;99230.91;339895;29;1974;-78
2023/07/30 00:05:34;;;;;;;528.90;482.87;;;;;;;25.69;51.39;99229.91;339497;28;1251;-78
2023/07/30 00:05:54;;;;;;;527.47;481.50;;;;;;;25.64;51.86;99237.59;341984;28;1335;-78
2023/07/30 00:06:05;;;;;;;517.75;472.17;;;;;;;25.62;51.22;99242.25;337737;29;1462;-78
2023/07/30 00:06:15;;;;;;;517.80;472.20;;;;;;;25.60;51.44;99244.28;335560;29;866;-78
2023/07/30 00:06:26;;;;;;;523.08;477.25;;;;;;;25.57;51.25;99236.56;339983;29;1438;-78
2023/07/30 00:06:36;;;;;;;529.73;483.77;;;;;;;25.56;51.92;99233.03;335599;29;1769;-78
2023/07/30 00:06:47;;;;;;;529.80;483.83;;;;;;;25.56;51.57;99240.28;330723;29;1284;-78
2023/07/30 00:06:57;;;;;;;525.67;479.87;;;;;;;25.55;51.66;99235.94;331453;29;1923;-78
2023/07/30 00:07:07;;;;;;;523.47;477.73;;;;;;;25.53;51.64;99234.25;333841;29;1508;-78
2023/07/30 00:07:18;;;;;;;525.38;479.52;;;;;;;25.53;51.62;99242.28;329420;30;797;-78
2023/07/30 00:07:28;;;;;;;526.53;480.70;;;;;;;25.53;51.49;99236.94;329390;30;934;-78
2023/07/30 00:07:38;;;;;;;522.83;477.08;;;;;;;25.52;51.70;99237.94;328886;29;1639;-78
2023/07/30 00:07:49;;;;;;;522.67;476.87;;;;;;;25.52;51.77;99234.41;326617;30;1248;-79
2023/07/30 00:08:00;;;;;;;526.13;480.10;;;;;;;25.52;51.56;99237.09;323136;30;1783;-79
2023/07/30 00:08:10;;;;;;;526.67;480.63;;;;;;;25.52;51.20;99237.94;326592;30;1416;-79
2023/07/30 00:08:21;;;;;;;526.10;480.15;;;;;;;25.53;51.78;99236.94;325146;30;2248;-79
2023/07/30 00:08:31;;;;;;;526.93;480.80;;;;;;;25.55;51.76;99241.28;326738;30;1235;-79
2023/07/30 00:08:42;;;;;;;522.70;476.50;;;;;;;25.50;51.93;99229.22;323935;30;2262;-79
2023/07/30 00:08:52;;;;;;;521.70;475.50;;;;;;;25.52;51.83;99237.94;320548;30;2474;-79
2023/07/30 00:09:03;;;;;;;514.33;468.45;;;;;;;25.53;51.47;99239.59;320924;30;1226;-79
2023/07/30 00:09:14;;;;;;;520.30;474.52;;;;;;;25.54;51.53;99243.13;318477;30;1468;-79
2023/07/30 00:09:24;;;;;;;520.95;475.23;;;;;;;25.53;51.94;99231.56;319794;30;2053;-79
2023/07/30 00:09:35;;;;;;;519.77;474.00;;;;;;;25.56;51.87;99237.59;318266;31;2136;-81
2023/07/30 00:09:45;;;;;;;524.83;478.90;;;;;;;25.56;51.59;99241.09;316244;31;1367;-81
2023/07/30 00:09:55;;;;;;;529.50;483.40;;;;;;;25.56;51.49;99237.59;316594;31;1731;-80
2023/07/30 00:10:06;;;;;;;529.20;483.13;;;;;;;25.54;51.80;99237.78;319364;30;1405;-80
2023/07/30 00:10:17;;;;;;;519.58;473.85;;;;;;;25.52;51.76;99232.56;319626;30;787;-80
2023/07/30 00:10:27;;;;;;;518.28;472.67;;;;;;;25.54;51.59;99237.78;317148;30;2189;-80
2023/07/30 00:10:38;;;;;;;522.83;477.10;;;;;;;25.56;51.58;99240.28;313485;31;2848;-80
2023/07/30 00:10:48;;;;;;;524.28;478.38;;;;;;;25.56;51.35;99232.25;313410;30;2910;-80
2023/07/30 00:10:59;;;;;;;522.77;476.77;;;;;;;25.56;51.22;99234.91;312388;31;1351;-78
2023/07/30 00:11:09;;;;;;;527.40;481.33;;;;;;;25.59;51.17;99242.59;311671;31;3516;-78
2023/07/30 00:11:19;;;;;;;530.87;484.80;;;;;;;25.59;51.25;99232.72;311715;31;3479;-78
2023/07/30 00:11:30;;;;;;;529.00;483.02;;;;;;;25.59;51.58;99237.22;310577;31;1233;-78
2023/07/30 00:11:40;;;;;;;523.90;477.97;;;;;;;25.58;51.39;99238.25;313801;31;2912;-78
2023/07/30 00:11:51;;;;;;;520.13;474.13;;;;;;;25.58;51.22;99236.41;313058;31;2859;-77
2023/07/30 00:12:02;;;;;;;518.63;472.55;;;;;;;25.58;50.86;99236.41;311758;31;906;-77
2023/07/30 00:12:12;;;;;;;512.33;466.60;;;;;;;25.58;51.48;99230.19;312209;31;2147;-77
2023/07/30 00:12:22;;;;;;;518.23;472.53;;;;;;;25.57;51.53;99232.03;311677;31;2336;-78
2023/07/30 00:12:33;;;;;;;522.63;476.95;;;;;;;25.59;51.14;99234.56;314003;31;1329;-78
2023/07/30 00:12:43;;;;;;;523.83;478.00;;;;;;;25.58;51.29;99231.03;309447;31;1281;-78
2023/07/30 00:12:54;;;;;;;519.30;473.50;;;;;;;25.58;51.39;99230.19;306354;31;3853;-78
2023/07/30 00:13:04;;;;;;;520.42;474.63;;;;;;;25.55;51.37;99234.09;305430;31;4451;-78
2023/07/30 00:13:14;;;;;;;528.93;482.97;;;;;;;25.56;51.20;99237.59;303030;32;1232;-79
2023/07/30 00:13:25;;;;;;;528.15;482.17;;;;;;;25.52;51.63;99232.56;302013;32;4743;-79
2023/07/30 00:13:35;;;;;;;528.27;482.23;;;;;;;25.51;51.62;99235.41;299667;32;4603;-78
2023/07/30 00:13:46;;;;;;;527.63;481.70;;;;;;;25.50;51.54;99234.59;301040;32;1094;-78
2023/07/30 00:13:56;;;;;;;534.60;488.53;;;;;;;25.50;51.24;99228.38;303233;32;4608;-78
2023/07/30 00:14:07;;;;;;;533.95;487.95;;;;;;;25.49;51.39;99229.38;301734;32;3550;-78
2023/07/30 00:14:18;;;;;;;529.20;483.20;;;;;;;25.46;51.62;99230.56;299926;32;1137;-78
2023/07/30 00:14:28;;;;;;;524.33;478.42;;;;;;;25.44;51.74;99227.22;299182;32;1133;-78
2023/07/30 00:14:39;;;;;;;529.45;483.50;;;;;;;25.43;51.63;99225.53;296808;33;3493;-78
2023/07/30 00:14:49;;;;;;;526.83;481.03;;;;;;;25.43;51.50;99233.56;295172;33;4407;-78
2023/07/30 00:14:59;;;;;;;532.53;486.63;;;;;;;25.44;51.68;99234.41;293052;33;1289;-78
2023/07/30 00:15:10;;;;;;;524.37;478.43;;;;;;;25.46;51.54;99232.41;292741;33;6044;-79
2023/07/30 00:15:20;;;;;;;525.03;478.93;;;;;;;25.43;51.73;99228.22;290611;33;6867;-79
2023/07/30 00:15:32;;;;;;;524.50;478.30;;;;;;;25.43;51.98;99233.56;292104;33;922;-79
2023/07/30 00:15:42;;;;;;;518.13;472.25;;;;;;;25.44;51.88;99235.25;284228;34;7158;-79
2023/07/30 00:15:52;;;;;;;520.20;474.50;;;;;;;25.46;51.47;99230.56;283726;34;7378;-79
2023/07/30 00:16:03;;;;;;;517.00;471.33;;;;;;;25.48;51.85;99230.41;283340;34;1410;-79
2023/07/30 00:16:13;;;;;;;528.47;482.58;;;;;;;25.48;51.91;99231.22;278858;35;1286;-79
2023/07/30 00:16:26;;;;;;;525.73;479.77;;;;;;;25.48;51.76;99228.56;278289;35;5232;-79
2023/07/30 00:16:36;;;;;;;531.17;485.10;;;;;;;25.49;52.13;99227.53;275842;35;4488;-79
2023/07/30 00:16:46;;;;;;;515.65;469.90;;;;;;;25.50;51.75;99231.91;273847;36;1270;-78
2023/07/30 00:16:57;;;;;;;516.53;470.70;;;;;;;25.51;51.65;99230.91;278115;35;5414;-79
2023/07/30 00:17:07;;;;;;;518.35;472.38;;;;;;;25.50;51.70;99229.22;277893;35;7032;-79
2023/07/30 00:17:18;;;;;;;523.10;477.03;;;;;;;25.52;51.69;99229.06;277618;35;949;-79
2023/07/30 00:17:29;;;;;;;523.20;477.17;;;;;;;25.52;51.29;99232.56;274983;36;915;-78
2023/07/30 00:19:40;;;;;;;473.48;428.59;;;;;;;25.49;52.07;99232.06;2502083;27;20279;-78
2023/07/30 00:19:50;;;;;;;501.23;455.50;;;;;;;25.50;51.89;99228.38;351691;28;1273;-78
2023/07/30 00:20:01;;;;;;;510.73;464.60;;;;;;;25.49;51.90;99232.91;349002;28;1276;-78
2023/07/30 00:20:11;;;;;;;517.70;471.60;;;;;;;25.51;51.97;99235.41;348931;28;937;-79
2023/07/30 00:20:22;;;;;;;518.25;472.45;;;;;;;25.50;51.93;99231.91;348845;28;1315;-79
2023/07/30 00:20:35;;;;;;;511.97;466.33;;;;;;;25.51;51.92;99230.91;350214;28;1203;-79
2023/07/30 00:20:45;;;;;;;505.52;460.05;;;;;;;25.50;51.81;99229.22;347453;28;950;-79
2023/07/30 00:20:55;;;;;;;507.30;461.77;;;;;;;25.50;51.97;99229.22;347488;28;924;-79
2023/07/30 00:21:06;;;;;;;513.58;467.80;;;;;;;25.49;51.92;99227.53;348709;28;1316;-79
2023/07/30 00:21:16;;;;;;;518.50;472.57;;;;;;;25.49;52.26;99238.25;348920;28;1198;-79
2023/07/30 00:21:26;;;;;;;511.30;465.63;;;;;;;25.48;52.26;99231.22;348832;28;925;-79
2023/07/30 00:21:37;;;;;;;512.60;466.77;;;;;;;25.46;52.28;99229.72;350183;28;812;-79
2023/07/30 00:21:47;;;;;;;511.10;465.27;;;;;;;25.45;52.25;99231.56;348772;28;909;-79
2023/07/30 00:21:58;;;;;;;511.13;465.35;;;;;;;25.45;52.22;99233.41;349006;28;856;-79
2023/07/30 00:22:08;;;;;;;508.87;463.10;;;;;;;25.46;52.03;99237.75;347320;28;1243;-79
2023/07/30 00:22:18;;;;;;;514.33;468.40;;;;;;;25.44;51.94;99235.25;346028;28;1330;-79
2023/07/30 00:22:29;;;;;;;515.50;469.50;;;;;;;25.43;52.20;99236.25;346240;28;907;-79
2023/07/30 00:22:39;;;;;;;512.13;466.23;;;;;;;25.43;52.33;99228.22;347598;28;1224;-79
2023/07/30 00:22:50;;;;;;;510.53;464.77;;;;;;;25.44;52.02;99229.88;347664;28;911;-79
2023/07/30 00:23:00;;;;;;;510.87;464.97;;;;;;;25.44;52.38;99229.06;347594;28;1175;-79
2023/07/30 00:23:10;;;;;;;508.90;463.20;;;;;;;25.44;51.94;99229.06;348805;28;919;-79
2023/07/30 00:23:21;;;;;;;509.57;463.73;;;;;;;25.45;52.36;99233.41;344722;28;863;-79
2023/07/30 00:23:31;;;;;;;512.55;466.75;;;;;;;25.42;52.32;99237.25;344573;28;1401;-78
2023/07/30 00:23:42;;;;;;;511.77;465.93;;;;;;;25.43;52.31;99228.22;346016;28;1192;-79
2023/07/30 00:23:52;;;;;;;513.57;467.87;;;;;;;25.44;52.05;99237.94;349530;28;943;-79
2023/07/30 00:24:03;;;;;;;513.60;468.00;;;;;;;25.43;52.40;99236.25;345252;28;1322;-79
2023/07/30 00:24:13;;;;;;;515.80;470.23;;;;;;;25.43;52.36;99236.25;349932;28;1318;-79
2023/07/30 00:24:24;;;;;;;507.38;461.77;;;;;;;25.45;52.19;99233.41;348658;28;1320;-79
2023/07/30 00:24:34;;;;;;;509.30;463.50;;;;;;;25.44;52.19;99232.56;346748;28;1198;-79
2023/07/30 00:24:44;;;;;;;512.50;466.67;;;;;;;25.43;52.13;99230.91;344673;28;1349;-79
2023/07/30 00:24:55;;;;;;;521.53;475.33;;;;;;;25.43;52.48;99235.41;347654;28;1196;-79
2023/07/30 00:25:05;;;;;;;512.88;466.88;;;;;;;25.42;52.14;99237.25;347998;28;1252;-79
2023/07/30 00:25:16;;;;;;;508.70;462.63;;;;;;;25.42;52.62;99237.25;344739;28;1378;-79
2023/07/30 00:25:26;;;;;;;499.73;453.90;;;;;;;25.41;52.38;99232.91;343660;28;1118;-79
2023/07/30 00:25:37;;;;;;;505.27;459.17;;;;;;;25.42;52.34;99236.41;340573;29;1194;-79
2023/07/30 00:25:47;;;;;;;504.50;458.80;;;;;;;25.42;52.28;99233.72;342399;28;1059;-78
2023/07/30 00:25:57;;;;;;;511.33;465.70;;;;;;;25.42;52.36;99236.41;339459;29;1320;-78
2023/07/30 00:26:08;;;;;;;507.20;461.70;;;;;;;25.42;52.43;99236.41;340400;28;1247;-79
2023/07/30 00:26:18;;;;;;;504.97;459.20;;;;;;;25.41;52.20;99238.25;341041;28;1228;-79
2023/07/30 00:26:29;;;;;;;496.83;451.07;;;;;;;25.41;52.15;99234.75;343256;28;1424;-79
2023/07/30 00:26:40;;;;;;;497.60;451.83;;;;;;;25.43;52.40;99238.09;343310;28;1284;-79
2023/07/30 00:26:50;;;;;;;500.70;455.10;;;;;;;25.41;52.22;99235.56;342977;28;805;-79
2023/07/30 00:27:01;;;;;;;510.93;465.13;;;;;;;25.42;52.30;99242.63;343599;28;1477;-79
2023/07/30 00:27:11;;;;;;;512.03;466.25;;;;;;;25.39;52.32;99234.91;343292;28;1349;-79
2023/07/30 00:27:21;;;;;;;514.27;468.43;;;;;;;25.40;52.10;99233.91;345630;28;1243;-79
2023/07/30 00:27:32;;;;;;;514.25;468.55;;;;;;;25.40;52.31;99233.91;341862;28;1403;-79
2023/07/30 00:27:42;;;;;;;515.37;469.67;;;;;;;25.40;52.14;99230.38;339512;29;821;-79
2023/07/30 00:27:53;;;;;;;516.10;470.48;;;;;;;25.41;52.26;99240.94;344240;28;1981;-79
2023/07/30 00:28:03;;;;;;;509.57;464.03;;;;;;;25.39;52.40;99237.59;343559;28;1378;-79
2023/07/30 00:28:14;;;;;;;510.60;464.92;;;;;;;25.39;52.19;99234.06;344519;28;1670;-79
2023/07/30 00:28:24;;;;;;;504.50;458.90;;;;;;;25.39;52.53;99232.22;341878;28;1205;-78
2023/07/30 00:28:34;;;;;;;509.00;463.40;;;;;;;25.39;52.16;99237.59;341189;28;1328;-79
2023/07/30 00:28:45;;;;;;;505.63;460.17;;;;;;;25.39;52.25;99232.22;339599;28;1139;-79
2023/07/30 00:28:55;;;;;;;510.97;465.40;;;;;;;25.38;52.45;99227.88;343418;28;1187;-79
2023/07/30 00:29:06;;;;;;;510.90;465.10;;;;;;;25.36;52.19;99232.56;342453;28;924;-79
2023/07/30 00:29:16;;;;;;;513.33;467.27;;;;;;;25.36;52.36;99237.91;339506;29;959;-79
2023/07/30 00:29:27;;;;;;;505.40;459.50;;;;;;;25.35;52.61;99233.56;336807;29;1278;-79
2023/07/30 00:29:37;;;;;;;508.63;462.70;;;;;;;25.35;52.53;99233.56;335419;29;1517;-79
2023/07/30 00:29:47;;;;;;;506.13;460.27;;;;;;;25.35;52.50;99227.38;335063;29;1745;-79
2023/07/30 00:29:58;;;;;;;509.52;463.67;;;;;;;25.35;52.67;99235.41;334269;29;1212;-79
2023/07/30 00:30:09;;;;;;;506.23;460.43;;;;;;;25.31;52.98;99234.91;334971;29;1825;-79
2023/07/30 00:30:19;;;;;;;510.20;464.50;;;;;;;25.31;52.79;99232.22;329285;29;1681;-79
2023/07/30 00:30:29;;;;;;;509.50;463.90;;;;;;;25.32;52.80;99235.72;324748;29;2105;-78
2023/07/30 00:30:40;;;;;;;515.17;469.47;;;;;;;25.31;52.83;99237.56;329272;29;1194;-79
2023/07/30 00:30:50;;;;;;;517.25;471.48;;;;;;;25.32;52.75;99233.06;328693;29;1760;-79
2023/07/30 00:31:01;;;;;;;516.70;470.90;;;;;;;25.32;53.08;99235.72;329377;29;1182;-79
2023/07/30 00:31:11;;;;;;;509.43;463.77;;;;;;;25.28;53.18;99229.88;329437;29;1344;-79
2023/07/30 00:31:21;;;;;;;504.90;459.27;;;;;;;25.30;52.44;99235.06;328761;29;1447;-79
2023/07/30 00:31:32;;;;;;;503.17;457.30;;;;;;;25.31;53.00;99234.91;324768;30;1824;-79
2023/07/30 00:31:42;;;;;;;505.63;459.60;;;;;;;25.30;52.86;99232.38;327940;30;1430;-79
2023/07/30 00:31:53;;;;;;;506.20;460.23;;;;;;;25.30;52.92;99227.88;326073;30;2262;-79
2023/07/30 00:32:03;;;;;;;510.60;464.70;;;;;;;25.32;52.91;99231.22;328409;29;2093;-79
2023/07/30 00:32:16;;;;;;;513.78;467.77;;;;;;;25.32;52.62;99236.56;324251;30;1349;-79
2023/07/30 00:32:26;;;;;;;515.97;470.02;;;;;;;25.32;52.54;99235.72;321842;30;954;-79
2023/07/30 00:32:43;;;;;;;516.53;470.57;;;;;;;25.30;52.79;99230.53;322581;30;2352;-79
2023/07/30 00:32:53;;;;;;;512.20;466.48;;;;;;;25.31;52.57;99229.53;325504;30;2687;-79
2023/07/30 00:33:04;;;;;;;504.87;459.37;;;;;;;25.31;52.76;99229.53;321615;30;1774;-79
2023/07/30 00:33:14;;;;;;;505.38;459.95;;;;;;;25.31;52.78;99232.22;319661;30;1321;-79
2023/07/30 00:33:25;;;;;;;509.93;464.30;;;;;;;25.31;52.81;99226.03;320908;30;1182;-79
2023/07/30 00:33:35;;;;;;;515.33;469.52;;;;;;;25.31;52.63;99234.91;320040;30;1832;-79
2023/07/30 00:33:45;;;;;;;514.73;468.93;;;;;;;25.30;52.76;99227.88;316864;31;2455;-79
2023/07/30 00:33:56;;;;;;;510.45;464.75;;;;;;;25.30;52.84;99230.53;312840;31;1201;-79
2023/07/30 00:34:06;;;;;;;514.63;468.77;;;;;;;25.30;52.90;99230.53;318585;30;2598;-79
2023/07/30 00:34:17;;;;;;;517.07;471.13;;;;;;;25.30;52.65;99227.03;315950;31;2943;-79
2023/07/30 00:34:27;;;;;;;513.00;467.15;;;;;;;25.28;52.91;99235.22;315055;31;839;-79
2023/07/30 00:34:37;;;;;;;510.10;464.47;;;;;;;25.27;52.83;99233.56;317399;31;3060;-79
2023/07/30 00:34:48;;;;;;;506.20;460.67;;;;;;;25.24;53.25;99233.88;312780;31;3347;-79
2023/07/30 00:34:58;;;;;;;508.77;463.10;;;;;;;25.23;53.01;99229.53;309533;31;824;-79
2023/07/30 00:35:09;;;;;;;510.77;464.97;;;;;;;25.20;52.83;99229.84;314497;31;3210;-79
2023/07/30 00:35:20;;;;;;;514.78;468.77;;;;;;;25.21;52.88;99231.53;311875;31;2404;-79
2023/07/30 00:35:30;;;;;;;512.72;466.90;;;;;;;25.21;52.93;99234.22;309794;31;2203;-79
2023/07/30 00:35:40;;;;;;;505.63;460.00;;;;;;;25.22;53.10;99235.88;311792;31;1363;-79
2023/07/30 00:35:52;;;;;;;503.30;457.70;;;;;;;25.22;53.02;99229.69;311983;31;3126;-79
2023/07/30 00:36:02;;;;;;;504.02;458.35;;;;;;;25.17;53.25;99230.19;307508;31;3689;-79
2023/07/30 00:36:13;;;;;;;506.98;461.15;;;;;;;25.13;53.68;99232.34;307505;32;1158;-79
2023/07/30 00:36:23;;;;;;;510.03;464.00;;;;;;;25.15;53.57;99226.81;303088;32;3815;-79
2023/07/30 00:36:34;;;;;;;505.98;460.08;;;;;;;25.13;53.57;99234.19;300533;32;4345;-79
2023/07/30 00:36:44;;;;;;;508.57;462.57;;;;;;;25.14;53.24;99230.50;300251;32;4445;-79
2023/07/30 00:36:54;;;;;;;510.17;464.23;;;;;;;25.15;53.51;99229.50;302085;32;1313;-79
2023/07/30 00:37:05;;;;;;;508.17;462.42;;;;;;;25.15;53.48;99229.50;300365;32;4509;-80
2023/07/30 00:37:15;;;;;;;509.77;464.07;;;;;;;25.16;53.31;99225.81;299773;32;3805;-81
2023/07/30 00:37:26;;;;;;;512.22;466.42;;;;;;;25.15;53.42;99225.00;298948;33;1395;-80
2023/07/30 00:37:36;;;;;;;515.33;469.23;;;;;;;25.15;53.49;99234.88;299241;32;3294;-80
2023/07/30 00:37:47;;;;;;;517.40;471.27;;;;;;;25.15;53.21;99229.50;296039;33;3642;-80
2023/07/30 00:37:57;;;;;;;512.40;466.40;;;;;;;25.15;53.43;99229.50;293070;33;1094;-80
2023/07/30 00:38:07;;;;;;;514.35;468.55;;;;;;;25.16;53.52;99232.03;291002;33;4657;-80
2023/07/30 00:38:18;;;;;;;509.93;464.20;;;;;;;25.14;53.57;99233.19;291848;33;5369;-80
2023/07/30 00:38:29;;;;;;;512.15;466.48;;;;;;;25.15;53.35;99229.50;292542;33;1397;-80
2023/07/30 00:38:39;;;;;;;507.83;462.30;;;;;;;25.14;53.77;99228.66;285376;34;1924;-80
2023/07/30 00:38:50;;;;;;;516.90;471.13;;;;;;;25.16;53.63;99231.19;282619;34;8608;-80
2023/07/30 00:39:00;;;;;;;520.83;474.83;;;;;;;25.16;53.77;99231.19;280115;34;7335;-80
2023/07/30 00:39:11;;;;;;;513.47;467.65;;;;;;;25.19;53.58;99228.19;281833;35;1295;-80
2023/07/30 00:39:21;;;;;;;502.48;457.00;;;;;;;25.19;53.45;99231.69;283329;34;7093;-80
2023/07/30 00:39:32;;;;;;;496.70;451.40;;;;;;;25.16;53.74;99225.81;283266;34;4688;-80
2023/07/30 00:39:42;;;;;;;503.60;458.10;;;;;;;25.16;53.57;99231.19;284542;34;1271;-80
2023/07/30 00:39:52;;;;;;;509.73;464.13;;;;;;;25.13;53.67;99235.03;278971;35;4477;-80
2023/07/30 00:40:03;;;;;;;512.77;467.03;;;;;;;25.11;53.90;99226.34;277881;35;5680;-80
2023/07/30 00:40:14;;;;;;;510.05;464.33;;;;;;;25.12;53.84;99227.19;278013;35;1252;-80
2023/07/30 00:40:24;;;;;;;504.35;458.73;;;;;;;25.11;54.04;99234.38;275457;35;1318;-80
2023/07/30 00:40:40;;;;;;;500.13;454.67;;;;;;;25.10;53.71;99229.19;273550;35;10436;-80
2023/07/30 00:42:20;;;;;;;464.30;419.94;;;;;;;25.10;53.81;99227.34;2495462;27;21411;-79
2023/07/30 00:42:31;;;;;;;504.83;459.23;;;;;;;25.10;53.84;99226.50;351381;28;1251;-79
2023/07/30 00:42:41;;;;;;;505.80;460.15;;;;;;;25.11;54.08;99225.50;347294;28;1282;-78
2023/07/30 00:42:52;;;;;;;505.60;459.83;;;;;;;25.11;54.04;99228.19;348799;28;1239;-78
2023/07/30 00:43:02;;;;;;;509.57;463.67;;;;;;;25.11;53.95;99223.66;350121;28;1296;-78
2023/07/30 00:43:12;;;;;;;511.23;465.33;;;;;;;25.13;54.01;99231.50;350097;28;1327;-78
2023/07/30 00:43:23;;;;;;;509.10;463.27;;;;;;;25.13;53.87;99226.16;349051;28;1424;-78
2023/07/30 00:43:33;;;;;;;502.25;456.90;;;;;;;25.14;54.02;99225.16;347551;28;1233;-78
2023/07/30 00:43:45;;;;;;;505.53;459.83;;;;;;;25.14;53.88;99226.00;350384;28;1351;-78
2023/07/30 00:43:55;;;;;;;504.52;458.75;;;;;;;25.14;53.90;99228.66;348999;28;884;-78
2023/07/30 00:44:06;;;;;;;510.73;464.75;;;;;;;25.16;54.23;99228.50;347425;28;1341;-78
2023/07/30 00:44:16;;;;;;;512.43;466.60;;;;;;;25.14;54.08;99226.00;347365;28;1102;-78
2023/07/30 00:44:26;;;;;;;509.70;463.90;;;;;;;25.15;53.90;99224.16;347406;28;1406;-78
2023/07/30 00:44:37;;;;;;;503.67;458.07;;;;;;;25.15;53.91;99227.66;347412;28;1228;-78
2023/07/30 00:44:47;;;;;;;506.42;460.83;;;;;;;25.13;54.02;99226.16;347280;28;1327;-78
2023/07/30 00:44:58;;;;;;;515.83;470.10;;;;;;;25.14;54.01;99234.03;346120;28;1209;-78
2023/07/30 00:45:09;;;;;;;518.53;472.75;;;;;;;25.12;53.98;99225.34;345847;28;1307;-78
2023/07/30 00:45:19;;;;;;;513.67;468.08;;;;;;;25.12;54.26;99230.72;346122;28;1401;-78
2023/07/30 00:45:30;;;;;;;504.97;459.33;;;;;;;25.14;54.08;99227.84;348158;28;1286;-78
2023/07/30 00:45:41;;;;;;;503.20;457.63;;;;;;;25.14;54.13;99230.50;344563;28;1401;-78
2023/07/30 00:45:51;;;;;;;502.02;456.38;;;;;;;25.14;54.22;99223.31;344916;28;845;-78
2023/07/30 00:46:02;;;;;;;498.10;452.63;;;;;;;25.13;54.01;99227.00;347718;28;1335;-78
2023/07/30 00:46:12;;;;;;;496.80;451.35;;;;;;;25.14;53.90;99225.16;347763;28;1116;-78
2023/07/30 00:46:23;;;;;;;501.73;456.30;;;;;;;25.15;53.96;99229.50;350256;28;1271;-78
2023/07/30 00:46:33;;;;;;;502.40;457.00;;;;;;;25.13;54.39;99223.47;348794;28;1348;-78
2023/07/30 00:46:44;;;;;;;506.70;461.10;;;;;;;25.12;54.09;99220.00;347367;28;1305;-78
2023/07/30 00:46:54;;;;;;;506.85;461.15;;;;;;;25.13;54.18;99226.16;348749;28;1415;-78
2023/07/30 00:47:04;;;;;;;507.73;462.13;;;;;;;25.12;54.28;99232.53;350232;28;1317;-78
2023/07/30 00:47:15;;;;;;;501.83;456.42;;;;;;;25.11;53.86;99223.66;351246;28;1231;-78
2023/07/30 00:47:25;;;;;;;498.67;453.37;;;;;;;25.12;54.39;99224.50;348931;28;1312;-78
2023/07/30 00:47:37;;;;;;;496.10;450.77;;;;;;;25.10;54.09;99224.69;350109;28;1266;-78
2023/07/30 00:47:47;;;;;;;499.38;453.88;;;;;;;25.10;54.05;99226.50;350205;28;1431;-78
2023/07/30 00:47:58;;;;;;;506.98;461.33;;;;;;;25.08;54.09;99229.34;348634;28;1232;-78
2023/07/30 00:48:12;;;;;;;512.20;466.50;;;;;;;25.09;53.94;99225.69;350106;28;1207;-78
2023/07/30 00:48:22;;;;;;;514.20;468.45;;;;;;;25.10;54.12;99231.88;348738;28;875;-78
2023/07/30 00:48:33;;;;;;;510.25;464.63;;;;;;;25.12;54.01;99227.19;347293;28;921;-78
2023/07/30 00:48:43;;;;;;;508.73;463.13;;;;;;;25.11;54.08;99226.34;348842;28;1108;-78
2023/07/30 00:48:54;;;;;;;505.90;460.30;;;;;;;25.14;53.78;99227.84;348043;28;1176;-78
2023/07/30 00:49:04;;;;;;;508.20;462.53;;;;;;;25.13;54.19;99227.00;345878;28;1303;-78
2023/07/30 00:49:15;;;;;;;507.70;462.02;;;;;;;25.14;53.81;99227.84;343212;28;1066;-78
2023/07/30 00:49:25;;;;;;;506.30;460.60;;;;;;;25.14;53.87;99233.19;344850;28;859;-78
2023/07/30 00:49:35;;;;;;;497.60;452.20;;;;;;;25.11;53.88;99231.72;347452;28;1305;-78
2023/07/30 00:49:46;;;;;;;496.00;450.50;;;;;;;25.11;54.15;99230.88;343401;28;1183;-78
2023/07/30 00:49:56;;;;;;;492.30;446.93;;;;;;;25.10;54.48;99229.19;345494;28;1343;-78
2023/07/30 00:50:07;;;;;;;496.15;450.70;;;;;;;25.11;54.36;99237.06;343415;28;1268;-78
2023/07/30 00:50:18;;;;;;;505.75;459.98;;;;;;;25.08;54.41;99231.19;344218;28;1392;-78
2023/07/30 00:50:28;;;;;;;504.13;458.30;;;;;;;25.06;54.32;99230.53;342768;28;1518;-78
2023/07/30 00:50:39;;;;;;;496.35;450.83;;;;;;;25.05;54.42;99231.53;342930;28;1203;-78
2023/07/30 00:50:49;;;;;;;490.83;445.63;;;;;;;24.99;54.94;99232.19;344207;28;1324;-78
2023/07/30 00:51:00;;;;;;;499.20;453.87;;;;;;;24.97;54.80;99231.50;342616;28;1149;-78
2023/07/30 00:51:11;;;;;;;499.20;453.83;;;;;;;24.96;54.99;99229.81;343067;28;1354;-78
2023/07/30 00:51:21;;;;;;;505.38;459.90;;;;;;;24.94;55.02;99229.13;339543;29;1374;-78
2023/07/30 00:51:33;;;;;;;502.93;457.40;;;;;;;24.92;55.18;99234.63;340801;29;1209;-79
2023/07/30 00:51:43;;;;;;;501.17;455.63;;;;;;;24.87;55.57;99227.09;343351;28;1633;-79
2023/07/30 00:51:55;;;;;;;503.08;457.58;;;;;;;24.84;55.78;99232.78;340752;28;1371;-79
2023/07/30 00:52:06;;;;;;;508.85;463.30;;;;;;;24.83;55.64;99233.78;339437;29;1472;-79
2023/07/30 00:52:17;;;;;;;508.80;463.30;;;;;;;24.80;56.25;99231.41;339963;28;1560;-79